sensor_id;sensor_type;location;lat;lon;timestamp;P1;durP1;ratioP1;P2;durP2;ratioP2
793;SDS011;380;48.738;9.214;2023-07-28T00:02:00;3.47;;;1.55;;
793;SDS011;380;48.738;9.214;2023-07-28T00:04:26;2.85;;;2.00;;
793;SDS011;380;48.738;9.214;2023-07-28T00:06:52;2.67;;;1.70;;
793;SDS011;380;48.738;9.214;2023-07-28T00:09:18;2.58;;;1.50;;
793;SDS011;380;48.738;9.214;2023-07-28T00:11:44;2.72;;;2.20;;
793;SDS011;380;48.738;9.214;2023-07-28T00:14:10;2.72;;;1.52;;
793;SDS011;380;48.738;9.214;2023-07-28T00:16:36;2.60;;;1.65;;
793;SDS011;380;48.738;9.214;2023-07-28T00:19:02;2.85;;;1.88;;
793;SDS011;380;48.738;9.214;2023-07-28T00:21:29;3.13;;;1.80;;
793;SDS011;380;48.738;9.214;2023-07-28T00:23:55;2.85;;;1.90;;
793;SDS011;380;48.738;9.214;2023-07-28T00:26:21;2.35;;;1.50;;
793;SDS011;380;48.738;9.214;2023-07-28T00:28:46;2.33;;;1.45;;
793;SDS011;380;48.738;9.214;2023-07-28T00:31:12;1.92;;;1.38;;
793;SDS011;380;48.738;9.214;2023-07-28T00:33:38;2.28;;;1.65;;
793;SDS011;380;48.738;9.214;2023-07-28T00:36:04;2.60;;;1.67;;
793;SDS011;380;48.738;9.214;2023-07-28T00:38:30;2.58;;;1.48;;
793;SDS011;380;48.738;9.214;2023-07-28T00:40:56;2.90;;;1.88;;
793;SDS011;380;48.738;9.214;2023-07-28T00:43:22;3.58;;;2.13;;
793;SDS011;380;48.738;9.214;2023-07-28T00:45:48;2.35;;;1.50;;
793;SDS011;380;48.738;9.214;2023-07-28T00:48:14;2.60;;;1.77;;
793;SDS011;380;48.738;9.214;2023-07-28T00:50:41;3.38;;;1.52;;
793;SDS011;380;48.738;9.214;2023-07-28T00:53:07;2.28;;;1.50;;
793;SDS011;380;48.738;9.214;2023-07-28T00:55:33;2.75;;;1.90;;
793;SDS011;380;48.738;9.214;2023-07-28T00:57:59;1.65;;;1.10;;
793;SDS011;380;48.738;9.214;2023-07-28T01:00:25;2.67;;;1.90;;
793;SDS011;380;48.738;9.214;2023-07-28T01:02:51;4.75;;;1.45;;
793;SDS011;380;48.738;9.214;2023-07-28T01:05:17;2.55;;;1.63;;
793;SDS011;380;48.738;9.214;2023-07-28T01:07:46;2.28;;;1.35;;
793;SDS011;380;48.738;9.214;2023-07-28T01:12:40;2.40;;;1.40;;
793;SDS011;380;48.738;9.214;2023-07-28T01:15:06;2.40;;;1.70;;
793;SDS011;380;48.738;9.214;2023-07-28T01:17:32;2.90;;;1.52;;
793;SDS011;380;48.738;9.214;2023-07-28T01:19:58;2.05;;;1.33;;
793;SDS011;380;48.738;9.214;2023-07-28T01:25:06;2.47;;;1.33;;
793;SDS011;380;48.738;9.214;2023-07-28T01:27:38;2.33;;;1.65;;
793;SDS011;380;48.738;9.214;2023-07-28T01:30:07;4.22;;;1.73;;
793;SDS011;380;48.738;9.214;2023-07-28T01:32:33;3.30;;;1.70;;
793;SDS011;380;48.738;9.214;2023-07-28T01:34:59;2.67;;;1.48;;
793;SDS011;380;48.738;9.214;2023-07-28T01:37:25;3.53;;;1.40;;
793;SDS011;380;48.738;9.214;2023-07-28T01:39:51;2.30;;;1.75;;
793;SDS011;380;48.738;9.214;2023-07-28T01:42:17;2.58;;;1.48;;
793;SDS011;380;48.738;9.214;2023-07-28T01:44:43;3.08;;;1.75;;
793;SDS011;380;48.738;9.214;2023-07-28T01:47:09;3.35;;;1.65;;
793;SDS011;380;48.738;9.214;2023-07-28T01:49:34;2.47;;;1.40;;
793;SDS011;380;48.738;9.214;2023-07-28T01:52:00;2.05;;;1.30;;
793;SDS011;380;48.738;9.214;2023-07-28T01:54:26;1.95;;;1.30;;
793;SDS011;380;48.738;9.214;2023-07-28T01:56:52;2.55;;;1.67;;
793;SDS011;380;48.738;9.214;2023-07-28T01:59:18;2.45;;;1.70;;
793;SDS011;380;48.738;9.214;2023-07-28T02:01:45;2.50;;;1.48;;
793;SDS011;380;48.738;9.214;2023-07-28T02:04:11;4.60;;;2.88;;
793;SDS011;380;48.738;9.214;2023-07-28T02:06:37;3.58;;;2.05;;
793;SDS011;380;48.738;9.214;2023-07-28T02:09:03;3.75;;;1.88;;
793;SDS011;380;48.738;9.214;2023-07-28T02:11:29;2.33;;;1.63;;
793;SDS011;380;48.738;9.214;2023-07-28T02:13:55;2.75;;;1.75;;
793;SDS011;380;48.738;9.214;2023-07-28T02:16:23;2.42;;;1.55;;
793;SDS011;380;48.738;9.214;2023-07-28T02:18:49;2.58;;;1.80;;
793;SDS011;380;48.738;9.214;2023-07-28T02:21:15;2.30;;;1.88;;
793;SDS011;380;48.738;9.214;2023-07-28T02:23:41;2.20;;;1.33;;
793;SDS011;380;48.738;9.214;2023-07-28T02:26:07;2.72;;;1.60;;
793;SDS011;380;48.738;9.214;2023-07-28T02:28:33;2.45;;;1.40;;
793;SDS011;380;48.738;9.214;2023-07-28T02:30:58;2.67;;;1.50;;
793;SDS011;380;48.738;9.214;2023-07-28T02:33:24;3.10;;;2.10;;
793;SDS011;380;48.738;9.214;2023-07-28T02:35:50;2.40;;;1.50;;
793;SDS011;380;48.738;9.214;2023-07-28T02:38:16;2.53;;;1.95;;
793;SDS011;380;48.738;9.214;2023-07-28T02:40:42;3.10;;;1.58;;
793;SDS011;380;48.738;9.214;2023-07-28T02:43:08;1.88;;;1.02;;
793;SDS011;380;48.738;9.214;2023-07-28T02:45:34;2.10;;;1.50;;
793;SDS011;380;48.738;9.214;2023-07-28T02:48:00;3.40;;;1.80;;
793;SDS011;380;48.738;9.214;2023-07-28T02:50:27;2.47;;;1.75;;
793;SDS011;380;48.738;9.214;2023-07-28T02:52:52;2.78;;;1.88;;
793;SDS011;380;48.738;9.214;2023-07-28T02:55:18;2.30;;;1.48;;
793;SDS011;380;48.738;9.214;2023-07-28T02:57:44;2.22;;;1.45;;
793;SDS011;380;48.738;9.214;2023-07-28T03:00:10;2.67;;;1.70;;
793;SDS011;380;48.738;9.214;2023-07-28T03:02:36;2.17;;;1.13;;
793;SDS011;380;48.738;9.214;2023-07-28T03:05:02;2.20;;;1.45;;
793;SDS011;380;48.738;9.214;2023-07-28T03:07:29;3.40;;;1.85;;
793;SDS011;380;48.738;9.214;2023-07-28T03:09:55;3.00;;;1.52;;
793;SDS011;380;48.738;9.214;2023-07-28T03:12:21;2.83;;;1.77;;
793;SDS011;380;48.738;9.214;2023-07-28T03:14:47;3.70;;;1.58;;
793;SDS011;380;48.738;9.214;2023-07-28T03:17:13;2.28;;;1.70;;
793;SDS011;380;48.738;9.214;2023-07-28T03:19:39;3.08;;;1.83;;
793;SDS011;380;48.738;9.214;2023-07-28T03:22:05;3.40;;;1.50;;
793;SDS011;380;48.738;9.214;2023-07-28T03:24:30;2.92;;;1.55;;
793;SDS011;380;48.738;9.214;2023-07-28T03:26:56;2.28;;;1.45;;
793;SDS011;380;48.738;9.214;2023-07-28T03:29:22;2.33;;;1.42;;
793;SDS011;380;48.738;9.214;2023-07-28T03:31:48;3.75;;;1.50;;
793;SDS011;380;48.738;9.214;2023-07-28T03:34:14;2.95;;;1.33;;
793;SDS011;380;48.738;9.214;2023-07-28T03:36:40;1.98;;;1.13;;
793;SDS011;380;48.738;9.214;2023-07-28T03:39:06;2.25;;;1.55;;
793;SDS011;380;48.738;9.214;2023-07-28T03:41:32;2.30;;;1.63;;
793;SDS011;380;48.738;9.214;2023-07-28T03:43:58;2.95;;;1.88;;
793;SDS011;380;48.738;9.214;2023-07-28T03:46:24;2.10;;;1.40;;
793;SDS011;380;48.738;9.214;2023-07-28T03:48:50;2.42;;;1.60;;
793;SDS011;380;48.738;9.214;2023-07-28T03:51:16;2.72;;;1.67;;
793;SDS011;380;48.738;9.214;2023-07-28T03:53:42;2.75;;;1.85;;
793;SDS011;380;48.738;9.214;2023-07-28T03:56:08;2.33;;;1.63;;
793;SDS011;380;48.738;9.214;2023-07-28T03:58:34;5.78;;;1.70;;
793;SDS011;380;48.738;9.214;2023-07-28T04:01:00;2.15;;;1.42;;
793;SDS011;380;48.738;9.214;2023-07-28T04:03:26;2.78;;;1.45;;
793;SDS011;380;48.738;9.214;2023-07-28T04:05:52;2.38;;;1.73;;
793;SDS011;380;48.738;9.214;2023-07-28T04:08:17;4.65;;;1.42;;
793;SDS011;380;48.738;9.214;2023-07-28T04:10:43;3.60;;;2.00;;
793;SDS011;380;48.738;9.214;2023-07-28T04:13:09;1.85;;;1.30;;
793;SDS011;380;48.738;9.214;2023-07-28T04:15:35;4.05;;;1.80;;
793;SDS011;380;48.738;9.214;2023-07-28T04:18:01;3.17;;;2.15;;
793;SDS011;380;48.738;9.214;2023-07-28T04:20:27;6.47;;;1.85;;
793;SDS011;380;48.738;9.214;2023-07-28T04:22:53;2.88;;;1.88;;
793;SDS011;380;48.738;9.214;2023-07-28T04:25:19;3.20;;;2.15;;
793;SDS011;380;48.738;9.214;2023-07-28T04:27:45;2.55;;;1.60;;
793;SDS011;380;48.738;9.214;2023-07-28T04:30:11;3.28;;;1.75;;
793;SDS011;380;48.738;9.214;2023-07-28T04:32:37;1.83;;;1.25;;
793;SDS011;380;48.738;9.214;2023-07-28T04:35:03;2.88;;;1.63;;
793;SDS011;380;48.738;9.214;2023-07-28T04:37:30;2.75;;;1.83;;
793;SDS011;380;48.738;9.214;2023-07-28T04:39:56;2.35;;;1.60;;
793;SDS011;380;48.738;9.214;2023-07-28T04:42:22;2.15;;;1.45;;
793;SDS011;380;48.738;9.214;2023-07-28T04:44:48;2.00;;;1.23;;
793;SDS011;380;48.738;9.214;2023-07-28T04:47:14;2.40;;;1.70;;
793;SDS011;380;48.738;9.214;2023-07-28T04:49:40;2.25;;;1.45;;
793;SDS011;380;48.738;9.214;2023-07-28T04:52:06;2.10;;;1.30;;
793;SDS011;380;48.738;9.214;2023-07-28T04:54:32;2.55;;;1.63;;
793;SDS011;380;48.738;9.214;2023-07-28T04:56:58;3.58;;;1.70;;
793;SDS011;380;48.738;9.214;2023-07-28T04:59:24;2.72;;;1.60;;
793;SDS011;380;48.738;9.214;2023-07-28T05:01:50;2.65;;;1.92;;
793;SDS011;380;48.738;9.214;2023-07-28T05:04:16;5.47;;;1.50;;
793;SDS011;380;48.738;9.214;2023-07-28T05:06:41;4.18;;;2.08;;
793;SDS011;380;48.738;9.214;2023-07-28T05:09:07;3.20;;;1.85;;
793;SDS011;380;48.738;9.214;2023-07-28T05:11:34;2.65;;;1.77;;
793;SDS011;380;48.738;9.214;2023-07-28T05:14:00;2.97;;;1.77;;
793;SDS011;380;48.738;9.214;2023-07-28T05:16:26;2.67;;;1.60;;
793;SDS011;380;48.738;9.214;2023-07-28T05:18:52;3.45;;;2.22;;
793;SDS011;380;48.738;9.214;2023-07-28T05:21:17;4.63;;;1.77;;
793;SDS011;380;48.738;9.214;2023-07-28T05:23:43;3.40;;;2.15;;
793;SDS011;380;48.738;9.214;2023-07-28T05:26:09;3.00;;;2.13;;
793;SDS011;380;48.738;9.214;2023-07-28T05:28:35;2.13;;;1.38;;
793;SDS011;380;48.738;9.214;2023-07-28T05:31:05;3.90;;;2.95;;
793;SDS011;380;48.738;9.214;2023-07-28T05:33:31;2.90;;;2.33;;
793;SDS011;380;48.738;9.214;2023-07-28T05:36:01;2.83;;;2.17;;
793;SDS011;380;48.738;9.214;2023-07-28T05:40:59;4.43;;;1.80;;
793;SDS011;380;48.738;9.214;2023-07-28T05:43:26;5.03;;;2.10;;
793;SDS011;380;48.738;9.214;2023-07-28T05:45:52;3.33;;;2.13;;
793;SDS011;380;48.738;9.214;2023-07-28T05:48:18;3.90;;;2.28;;
793;SDS011;380;48.738;9.214;2023-07-28T05:50:44;2.80;;;1.67;;
793;SDS011;380;48.738;9.214;2023-07-28T05:53:10;2.30;;;1.60;;
793;SDS011;380;48.738;9.214;2023-07-28T05:55:36;3.75;;;2.28;;
793;SDS011;380;48.738;9.214;2023-07-28T05:58:02;3.10;;;1.90;;
793;SDS011;380;48.738;9.214;2023-07-28T06:00:28;2.70;;;1.83;;
793;SDS011;380;48.738;9.214;2023-07-28T06:02:54;2.97;;;1.88;;
793;SDS011;380;48.738;9.214;2023-07-28T06:05:20;4.07;;;2.40;;
793;SDS011;380;48.738;9.214;2023-07-28T06:07:46;2.88;;;2.08;;
793;SDS011;380;48.738;9.214;2023-07-28T06:10:12;2.38;;;1.65;;
793;SDS011;380;48.738;9.214;2023-07-28T06:12:38;2.97;;;2.03;;
793;SDS011;380;48.738;9.214;2023-07-28T06:15:04;2.97;;;2.17;;
793;SDS011;380;48.738;9.214;2023-07-28T06:17:30;3.30;;;2.10;;
793;SDS011;380;48.738;9.214;2023-07-28T06:19:56;3.10;;;2.05;;
793;SDS011;380;48.738;9.214;2023-07-28T06:22:22;3.58;;;2.55;;
793;SDS011;380;48.738;9.214;2023-07-28T06:24:48;3.25;;;2.33;;
793;SDS011;380;48.738;9.214;2023-07-28T06:27:14;3.22;;;2.38;;
793;SDS011;380;48.738;9.214;2023-07-28T06:29:40;3.72;;;2.03;;
793;SDS011;380;48.738;9.214;2023-07-28T06:32:06;3.20;;;2.17;;
793;SDS011;380;48.738;9.214;2023-07-28T06:34:32;2.40;;;1.67;;
793;SDS011;380;48.738;9.214;2023-07-28T06:36:58;2.38;;;1.70;;
793;SDS011;380;48.738;9.214;2023-07-28T06:39:24;2.47;;;1.70;;
793;SDS011;380;48.738;9.214;2023-07-28T06:41:50;3.65;;;2.25;;
793;SDS011;380;48.738;9.214;2023-07-28T06:44:16;2.92;;;2.28;;
793;SDS011;380;48.738;9.214;2023-07-28T06:46:42;6.20;;;2.25;;
793;SDS011;380;48.738;9.214;2023-07-28T06:49:08;2.83;;;1.75;;
793;SDS011;380;48.738;9.214;2023-07-28T06:51:34;2.88;;;2.03;;
793;SDS011;380;48.738;9.214;2023-07-28T06:54:00;3.90;;;1.95;;
793;SDS011;380;48.738;9.214;2023-07-28T06:56:27;4.70;;;2.17;;
793;SDS011;380;48.738;9.214;2023-07-28T06:58:53;3.08;;;1.98;;
793;SDS011;380;48.738;9.214;2023-07-28T07:01:19;2.95;;;1.95;;
793;SDS011;380;48.738;9.214;2023-07-28T07:03:45;3.70;;;2.17;;
793;SDS011;380;48.738;9.214;2023-07-28T07:06:10;3.08;;;2.20;;
793;SDS011;380;48.738;9.214;2023-07-28T07:08:36;2.60;;;2.08;;
793;SDS011;380;48.738;9.214;2023-07-28T07:11:03;6.20;;;2.47;;
793;SDS011;380;48.738;9.214;2023-07-28T07:13:30;4.40;;;2.75;;
793;SDS011;380;48.738;9.214;2023-07-28T07:15:56;3.33;;;2.70;;
793;SDS011;380;48.738;9.214;2023-07-28T07:18:22;4.15;;;2.53;;
793;SDS011;380;48.738;9.214;2023-07-28T07:20:48;3.75;;;2.60;;
793;SDS011;380;48.738;9.214;2023-07-28T07:23:14;3.22;;;2.35;;
793;SDS011;380;48.738;9.214;2023-07-28T07:25:40;2.72;;;1.92;;
793;SDS011;380;48.738;9.214;2023-07-28T07:28:06;3.55;;;2.20;;
793;SDS011;380;48.738;9.214;2023-07-28T07:30:33;5.28;;;2.72;;
793;SDS011;380;48.738;9.214;2023-07-28T07:32:59;3.60;;;2.67;;
793;SDS011;380;48.738;9.214;2023-07-28T07:35:25;3.20;;;2.47;;
793;SDS011;380;48.738;9.214;2023-07-28T07:37:51;2.78;;;2.25;;
793;SDS011;380;48.738;9.214;2023-07-28T07:40:17;3.72;;;2.50;;
793;SDS011;380;48.738;9.214;2023-07-28T07:42:45;5.32;;;2.58;;
793;SDS011;380;48.738;9.214;2023-07-28T07:45:12;4.30;;;2.78;;
793;SDS011;380;48.738;9.214;2023-07-28T07:47:38;4.40;;;2.33;;
793;SDS011;380;48.738;9.214;2023-07-28T07:50:05;3.10;;;2.70;;
793;SDS011;380;48.738;9.214;2023-07-28T07:52:31;2.70;;;1.80;;
793;SDS011;380;48.738;9.214;2023-07-28T07:54:57;3.20;;;1.90;;
793;SDS011;380;48.738;9.214;2023-07-28T07:57:23;3.35;;;2.55;;
793;SDS011;380;48.738;9.214;2023-07-28T07:59:49;3.35;;;2.25;;
793;SDS011;380;48.738;9.214;2023-07-28T08:02:15;4.18;;;2.83;;
793;SDS011;380;48.738;9.214;2023-07-28T08:04:41;2.90;;;2.15;;
793;SDS011;380;48.738;9.214;2023-07-28T08:07:08;4.93;;;2.35;;
793;SDS011;380;48.738;9.214;2023-07-28T08:09:34;4.32;;;2.40;;
793;SDS011;380;48.738;9.214;2023-07-28T08:12:00;3.10;;;2.50;;
793;SDS011;380;48.738;9.214;2023-07-28T08:14:26;5.00;;;2.53;;
793;SDS011;380;48.738;9.214;2023-07-28T08:16:52;3.20;;;2.40;;
793;SDS011;380;48.738;9.214;2023-07-28T08:19:18;2.92;;;2.42;;
793;SDS011;380;48.738;9.214;2023-07-28T08:21:44;3.72;;;2.58;;
793;SDS011;380;48.738;9.214;2023-07-28T08:24:09;2.70;;;1.67;;
793;SDS011;380;48.738;9.214;2023-07-28T08:26:36;2.55;;;2.00;;
793;SDS011;380;48.738;9.214;2023-07-28T08:29:02;3.15;;;1.98;;
793;SDS011;380;48.738;9.214;2023-07-28T08:31:28;3.35;;;2.30;;
793;SDS011;380;48.738;9.214;2023-07-28T08:33:54;3.45;;;2.00;;
793;SDS011;380;48.738;9.214;2023-07-28T08:36:20;2.63;;;1.95;;
793;SDS011;380;48.738;9.214;2023-07-28T08:38:46;2.90;;;2.00;;
793;SDS011;380;48.738;9.214;2023-07-28T08:41:13;2.90;;;2.03;;
793;SDS011;380;48.738;9.214;2023-07-28T08:43:39;3.20;;;2.17;;
793;SDS011;380;48.738;9.214;2023-07-28T08:46:05;3.35;;;2.20;;
793;SDS011;380;48.738;9.214;2023-07-28T08:48:31;2.80;;;1.70;;
793;SDS011;380;48.738;9.214;2023-07-28T08:50:57;2.00;;;1.40;;
793;SDS011;380;48.738;9.214;2023-07-28T08:53:23;2.80;;;1.67;;
793;SDS011;380;48.738;9.214;2023-07-28T08:55:50;2.70;;;1.60;;
793;SDS011;380;48.738;9.214;2023-07-28T08:58:20;2.30;;;1.80;;
793;SDS011;380;48.738;9.214;2023-07-28T09:00:47;2.05;;;1.35;;
793;SDS011;380;48.738;9.214;2023-07-28T09:03:16;4.87;;;1.60;;
793;SDS011;380;48.738;9.214;2023-07-28T09:05:43;2.80;;;1.73;;
793;SDS011;380;48.738;9.214;2023-07-28T09:08:11;3.10;;;1.88;;
793;SDS011;380;48.738;9.214;2023-07-28T09:10:46;2.55;;;1.85;;
793;SDS011;380;48.738;9.214;2023-07-28T09:13:16;2.92;;;1.70;;
793;SDS011;380;48.738;9.214;2023-07-28T09:15:43;4.20;;;1.83;;
793;SDS011;380;48.738;9.214;2023-07-28T09:18:09;2.13;;;1.58;;
793;SDS011;380;48.738;9.214;2023-07-28T09:20:36;2.40;;;1.38;;
793;SDS011;380;48.738;9.214;2023-07-28T09:23:02;3.28;;;1.70;;
793;SDS011;380;48.738;9.214;2023-07-28T09:25:29;2.40;;;1.30;;
793;SDS011;380;48.738;9.214;2023-07-28T09:27:58;2.20;;;1.58;;
793;SDS011;380;48.738;9.214;2023-07-28T09:30:25;2.47;;;1.77;;
793;SDS011;380;48.738;9.214;2023-07-28T09:32:52;3.00;;;2.10;;
793;SDS011;380;48.738;9.214;2023-07-28T09:35:19;3.63;;;2.17;;
793;SDS011;380;48.738;9.214;2023-07-28T09:37:49;4.07;;;2.55;;
793;SDS011;380;48.738;9.214;2023-07-28T09:40:19;5.60;;;3.47;;
793;SDS011;380;48.738;9.214;2023-07-28T09:42:46;5.28;;;2.53;;
793;SDS011;380;48.738;9.214;2023-07-28T09:45:14;5.07;;;3.35;;
793;SDS011;380;48.738;9.214;2023-07-28T09:47:41;4.55;;;2.70;;
793;SDS011;380;48.738;9.214;2023-07-28T09:50:08;3.85;;;3.05;;
793;SDS011;380;48.738;9.214;2023-07-28T09:52:39;6.50;;;3.40;;
793;SDS011;380;48.738;9.214;2023-07-28T09:55:08;3.58;;;2.75;;
793;SDS011;380;48.738;9.214;2023-07-28T09:57:45;4.53;;;2.40;;
793;SDS011;380;48.738;9.214;2023-07-28T10:00:12;3.35;;;2.35;;
793;SDS011;380;48.738;9.214;2023-07-28T10:02:39;4.25;;;2.60;;
793;SDS011;380;48.738;9.214;2023-07-28T10:05:06;3.47;;;2.80;;
793;SDS011;380;48.738;9.214;2023-07-28T10:07:33;4.95;;;2.78;;
793;SDS011;380;48.738;9.214;2023-07-28T10:09:59;3.47;;;2.58;;
793;SDS011;380;48.738;9.214;2023-07-28T10:12:25;4.13;;;2.70;;
793;SDS011;380;48.738;9.214;2023-07-28T10:15:02;3.63;;;2.00;;
793;SDS011;380;48.738;9.214;2023-07-28T10:17:32;3.05;;;1.70;;
793;SDS011;380;48.738;9.214;2023-07-28T10:19:59;3.25;;;1.98;;
793;SDS011;380;48.738;9.214;2023-07-28T10:22:26;3.13;;;2.15;;
793;SDS011;380;48.738;9.214;2023-07-28T10:24:56;2.85;;;1.60;;
793;SDS011;380;48.738;9.214;2023-07-28T10:27:55;2.42;;;1.70;;
793;SDS011;380;48.738;9.214;2023-07-28T10:30:14;3.28;;;1.80;;
793;SDS011;380;48.738;9.214;2023-07-28T10:32:44;2.63;;;1.67;;
793;SDS011;380;48.738;9.214;2023-07-28T10:37:48;2.53;;;1.77;;
793;SDS011;380;48.738;9.214;2023-07-28T10:40:49;2.88;;;1.83;;
793;SDS011;380;48.738;9.214;2023-07-28T10:43:07;8.07;;;1.27;;
793;SDS011;380;48.738;9.214;2023-07-28T10:45:34;4.88;;;1.88;;
793;SDS011;380;48.738;9.214;2023-07-28T10:48:00;2.45;;;1.23;;
793;SDS011;380;48.738;9.214;2023-07-28T10:50:30;2.90;;;1.35;;
793;SDS011;380;48.738;9.214;2023-07-28T10:52:56;2.00;;;1.05;;
793;SDS011;380;48.738;9.214;2023-07-28T10:55:26;3.10;;;1.63;;
793;SDS011;380;48.738;9.214;2023-07-28T10:57:52;3.20;;;1.23;;
793;SDS011;380;48.738;9.214;2023-07-28T11:00:19;1.67;;;1.00;;
793;SDS011;380;48.738;9.214;2023-07-28T11:02:50;2.33;;;1.05;;
793;SDS011;380;48.738;9.214;2023-07-28T11:05:20;1.33;;;0.65;;
793;SDS011;380;48.738;9.214;2023-07-28T11:07:51;1.30;;;0.65;;
793;SDS011;380;48.738;9.214;2023-07-28T11:10:17;2.03;;;1.13;;
793;SDS011;380;48.738;9.214;2023-07-28T11:12:44;1.40;;;0.65;;
793;SDS011;380;48.738;9.214;2023-07-28T11:15:11;1.75;;;0.85;;
793;SDS011;380;48.738;9.214;2023-07-28T11:17:42;1.38;;;0.70;;
793;SDS011;380;48.738;9.214;2023-07-28T11:20:17;2.70;;;1.33;;
793;SDS011;380;48.738;9.214;2023-07-28T11:22:44;1.38;;;0.75;;
793;SDS011;380;48.738;9.214;2023-07-28T11:25:10;1.85;;;0.95;;
793;SDS011;380;48.738;9.214;2023-07-28T11:27:37;1.60;;;1.00;;
793;SDS011;380;48.738;9.214;2023-07-28T11:30:03;1.52;;;0.65;;
793;SDS011;380;48.738;9.214;2023-07-28T11:32:30;1.63;;;0.80;;
793;SDS011;380;48.738;9.214;2023-07-28T11:35:03;1.52;;;0.73;;
793;SDS011;380;48.738;9.214;2023-07-28T11:37:30;2.30;;;1.20;;
793;SDS011;380;48.738;9.214;2023-07-28T11:39:56;2.03;;;1.10;;
793;SDS011;380;48.738;9.214;2023-07-28T11:42:23;1.58;;;0.75;;
793;SDS011;380;48.738;9.214;2023-07-28T11:44:49;1.75;;;0.93;;
793;SDS011;380;48.738;9.214;2023-07-28T11:47:18;2.00;;;1.10;;
793;SDS011;380;48.738;9.214;2023-07-28T11:49:50;1.45;;;0.93;;
793;SDS011;380;48.738;9.214;2023-07-28T11:52:16;2.08;;;1.05;;
793;SDS011;380;48.738;9.214;2023-07-28T11:54:43;1.90;;;1.10;;
793;SDS011;380;48.738;9.214;2023-07-28T11:57:10;2.17;;;0.80;;
793;SDS011;380;48.738;9.214;2023-07-28T11:59:36;1.77;;;1.00;;
793;SDS011;380;48.738;9.214;2023-07-28T12:02:02;2.33;;;1.23;;
793;SDS011;380;48.738;9.214;2023-07-28T12:04:34;2.30;;;1.42;;
793;SDS011;380;48.738;9.214;2023-07-28T12:09:28;3.92;;;1.67;;
793;SDS011;380;48.738;9.214;2023-07-28T12:11:54;2.88;;;1.55;;
793;SDS011;380;48.738;9.214;2023-07-28T12:14:34;2.58;;;1.20;;
793;SDS011;380;48.738;9.214;2023-07-28T12:17:00;2.95;;;1.77;;
793;SDS011;380;48.738;9.214;2023-07-28T12:19:27;2.80;;;1.73;;
793;SDS011;380;48.738;9.214;2023-07-28T12:21:53;2.92;;;1.40;;
793;SDS011;380;48.738;9.214;2023-07-28T12:24:19;2.55;;;1.63;;
793;SDS011;380;48.738;9.214;2023-07-28T12:26:46;3.03;;;1.52;;
793;SDS011;380;48.738;9.214;2023-07-28T12:29:13;5.30;;;1.92;;
793;SDS011;380;48.738;9.214;2023-07-28T12:31:39;4.80;;;2.08;;
793;SDS011;380;48.738;9.214;2023-07-28T12:34:05;2.80;;;1.60;;
793;SDS011;380;48.738;9.214;2023-07-28T12:36:30;2.90;;;1.73;;
793;SDS011;380;48.738;9.214;2023-07-28T12:38:56;3.65;;;1.77;;
793;SDS011;380;48.738;9.214;2023-07-28T12:41:22;2.80;;;1.80;;
793;SDS011;380;48.738;9.214;2023-07-28T12:43:49;2.50;;;1.45;;
793;SDS011;380;48.738;9.214;2023-07-28T12:46:17;2.97;;;1.52;;
793;SDS011;380;48.738;9.214;2023-07-28T12:48:43;3.08;;;1.38;;
793;SDS011;380;48.738;9.214;2023-07-28T12:51:09;2.53;;;1.70;;
793;SDS011;380;48.738;9.214;2023-07-28T12:53:35;3.67;;;1.83;;
793;SDS011;380;48.738;9.214;2023-07-28T12:56:01;2.85;;;1.80;;
793;SDS011;380;48.738;9.214;2023-07-28T12:58:27;2.75;;;1.85;;
793;SDS011;380;48.738;9.214;2023-07-28T13:00:53;2.67;;;1.50;;
793;SDS011;380;48.738;9.214;2023-07-28T13:03:21;2.95;;;1.90;;
793;SDS011;380;48.738;9.214;2023-07-28T13:05:47;2.33;;;1.48;;
793;SDS011;380;48.738;9.214;2023-07-28T13:08:13;2.92;;;1.48;;
793;SDS011;380;48.738;9.214;2023-07-28T13:10:39;2.45;;;1.63;;
793;SDS011;380;48.738;9.214;2023-07-28T13:13:05;3.08;;;1.73;;
793;SDS011;380;48.738;9.214;2023-07-28T13:15:31;2.58;;;1.83;;
793;SDS011;380;48.738;9.214;2023-07-28T13:17:56;2.97;;;1.80;;
793;SDS011;380;48.738;9.214;2023-07-28T13:20:22;2.90;;;2.03;;
793;SDS011;380;48.738;9.214;2023-07-28T13:22:48;2.67;;;1.70;;
793;SDS011;380;48.738;9.214;2023-07-28T13:25:14;4.65;;;2.28;;
793;SDS011;380;48.738;9.214;2023-07-28T13:27:40;4.03;;;1.90;;
793;SDS011;380;48.738;9.214;2023-07-28T13:30:06;2.88;;;1.55;;
793;SDS011;380;48.738;9.214;2023-07-28T13:32:32;2.42;;;1.42;;
793;SDS011;380;48.738;9.214;2023-07-28T13:34:58;3.03;;;1.80;;
793;SDS011;380;48.738;9.214;2023-07-28T13:37:24;3.17;;;1.73;;
793;SDS011;380;48.738;9.214;2023-07-28T13:39:50;2.90;;;1.55;;
793;SDS011;380;48.738;9.214;2023-07-28T13:42:17;2.10;;;1.25;;
793;SDS011;380;48.738;9.214;2023-07-28T13:44:43;3.08;;;1.42;;
793;SDS011;380;48.738;9.214;2023-07-28T13:47:09;3.92;;;2.17;;
793;SDS011;380;48.738;9.214;2023-07-28T13:49:35;2.38;;;1.30;;
793;SDS011;380;48.738;9.214;2023-07-28T13:52:02;4.72;;;2.03;;
793;SDS011;380;48.738;9.214;2023-07-28T13:54:28;2.70;;;1.90;;
793;SDS011;380;48.738;9.214;2023-07-28T13:56:54;4.63;;;2.22;;
793;SDS011;380;48.738;9.214;2023-07-28T13:59:20;3.45;;;1.52;;
793;SDS011;380;48.738;9.214;2023-07-28T14:01:47;2.53;;;1.65;;
793;SDS011;380;48.738;9.214;2023-07-28T14:04:13;2.75;;;1.75;;
793;SDS011;380;48.738;9.214;2023-07-28T14:06:39;1.88;;;1.27;;
793;SDS011;380;48.738;9.214;2023-07-28T14:09:05;2.67;;;1.70;;
793;SDS011;380;48.738;9.214;2023-07-28T14:11:31;3.42;;;1.55;;
793;SDS011;380;48.738;9.214;2023-07-28T14:13:57;3.50;;;2.08;;
793;SDS011;380;48.738;9.214;2023-07-28T14:16:23;2.20;;;1.50;;
793;SDS011;380;48.738;9.214;2023-07-28T14:18:49;2.53;;;1.50;;
793;SDS011;380;48.738;9.214;2023-07-28T14:21:15;9.20;;;2.15;;
793;SDS011;380;48.738;9.214;2023-07-28T14:23:41;3.65;;;2.13;;
793;SDS011;380;48.738;9.214;2023-07-28T14:26:07;3.25;;;2.20;;
793;SDS011;380;48.738;9.214;2023-07-28T14:28:33;2.85;;;1.60;;
793;SDS011;380;48.738;9.214;2023-07-28T14:30:59;2.90;;;1.90;;
793;SDS011;380;48.738;9.214;2023-07-28T14:33:25;3.05;;;1.85;;
793;SDS011;380;48.738;9.214;2023-07-28T14:35:51;3.67;;;2.13;;
793;SDS011;380;48.738;9.214;2023-07-28T14:38:18;3.88;;;2.13;;
793;SDS011;380;48.738;9.214;2023-07-28T14:40:44;2.53;;;1.63;;
793;SDS011;380;48.738;9.214;2023-07-28T14:43:15;3.63;;;1.83;;
793;SDS011;380;48.738;9.214;2023-07-28T14:45:41;3.40;;;1.92;;
793;SDS011;380;48.738;9.214;2023-07-28T14:48:07;4.05;;;1.85;;
793;SDS011;380;48.738;9.214;2023-07-28T14:50:33;3.63;;;2.45;;
793;SDS011;380;48.738;9.214;2023-07-28T14:52:59;4.78;;;2.13;;
793;SDS011;380;48.738;9.214;2023-07-28T14:55:25;3.78;;;2.13;;
793;SDS011;380;48.738;9.214;2023-07-28T14:57:51;3.30;;;2.10;;
793;SDS011;380;48.738;9.214;2023-07-28T15:00:18;3.92;;;2.20;;
793;SDS011;380;48.738;9.214;2023-07-28T15:02:44;3.35;;;1.60;;
793;SDS011;380;48.738;9.214;2023-07-28T15:05:10;3.58;;;2.42;;
793;SDS011;380;48.738;9.214;2023-07-28T15:07:36;3.00;;;2.10;;
793;SDS011;380;48.738;9.214;2023-07-28T15:10:02;2.95;;;2.10;;
793;SDS011;380;48.738;9.214;2023-07-28T15:12:28;3.20;;;2.17;;
793;SDS011;380;48.738;9.214;2023-07-28T15:14:54;3.08;;;1.98;;
793;SDS011;380;48.738;9.214;2023-07-28T15:17:20;2.92;;;1.65;;
793;SDS011;380;48.738;9.214;2023-07-28T15:19:46;3.40;;;2.40;;
793;SDS011;380;48.738;9.214;2023-07-28T15:22:12;2.90;;;1.52;;
793;SDS011;380;48.738;9.214;2023-07-28T15:24:38;2.40;;;1.58;;
793;SDS011;380;48.738;9.214;2023-07-28T15:27:04;3.00;;;1.80;;
793;SDS011;380;48.738;9.214;2023-07-28T15:29:30;2.60;;;1.70;;
793;SDS011;380;48.738;9.214;2023-07-28T15:31:56;4.00;;;2.20;;
793;SDS011;380;48.738;9.214;2023-07-28T15:34:22;3.83;;;2.30;;
793;SDS011;380;48.738;9.214;2023-07-28T15:36:48;3.03;;;2.00;;
793;SDS011;380;48.738;9.214;2023-07-28T15:39:14;2.35;;;1.65;;
793;SDS011;380;48.738;9.214;2023-07-28T15:41:40;3.55;;;2.22;;
793;SDS011;380;48.738;9.214;2023-07-28T15:44:06;3.38;;;1.98;;
793;SDS011;380;48.738;9.214;2023-07-28T15:46:32;3.60;;;1.80;;
793;SDS011;380;48.738;9.214;2023-07-28T15:48:58;2.50;;;1.83;;
793;SDS011;380;48.738;9.214;2023-07-28T15:51:24;2.97;;;2.38;;
793;SDS011;380;48.738;9.214;2023-07-28T15:53:50;3.05;;;2.38;;